Time;durP1;ratioP1;P1;durP2;ratioP2;P2;SDS_P1;SDS_P2;PMS_P1;PMS_P2;Temp;Humidity;BMP_temperature;BMP_pressure;BME280_temperature;BME280_humidity;BME280_pressure;Samples;Min_cycle;Max_cycle;Signal;HPM_P1;HPM_P2
2023/08/01 00:00:05;;;;;;;11.15;4.95;;;16.70;99.90;;;;;;5092692;28;20437;-73
2023/08/01 00:02:31;;;;;;;8.20;5.38;;;16.70;99.90;;;;;;5098555;28;20050;-72
2023/08/01 00:04:56;;;;;;;10.23;4.95;;;16.70;99.90;;;;;;5093386;28;20024;-73
2023/08/01 00:07:22;;;;;;;10.30;5.25;;;16.70;99.90;;;;;;5096053;28;20494;-73
2023/08/01 00:09:47;;;;;;;12.57;5.22;;;16.70;99.90;;;;;;5078736;28;20107;-73
2023/08/01 00:12:14;;;;;;;10.82;5.60;;;16.70;99.90;;;;;;5090678;28;20016;-72
2023/08/01 00:14:39;;;;;;;8.45;6.05;;;16.70;99.90;;;;;;5081485;28;20060;-73
2023/08/01 00:17:05;;;;;;;11.07;5.93;;;16.70;99.90;;;;;;5085975;28;20137;-73
2023/08/01 00:19:31;;;;;;;11.02;5.90;;;16.70;99.90;;;;;;5102825;28;20372;-73
2023/08/01 00:21:56;;;;;;;11.32;5.47;;;16.70;99.90;;;;;;5096025;28;20028;-73
2023/08/01 00:24:22;;;;;;;9.15;5.28;;;16.70;99.90;;;;;;5099587;28;20031;-72
2023/08/01 00:26:47;;;;;;;11.65;5.68;;;16.70;99.90;;;;;;5110314;28;20032;-73
2023/08/01 00:29:13;;;;;;;12.80;5.25;;;16.70;99.90;;;;;;5082015;28;20023;-73
2023/08/01 00:31:39;;;;;;;9.68;4.95;;;16.70;99.90;;;;;;5095017;28;20046;-73
2023/08/01 00:34:05;;;;;;;10.35;5.13;;;16.60;99.90;;;;;;5090001;28;20048;-73
2023/08/01 00:36:31;;;;;;;8.52;5.50;;;16.70;99.90;;;;;;5093954;28;20491;-73
2023/08/01 00:38:57;;;;;;;13.25;5.05;;;16.60;99.90;;;;;;5092198;28;20028;-73
2023/08/01 00:41:23;;;;;;;8.80;4.55;;;16.60;99.90;;;;;;5093731;28;20036;-73
2023/08/01 00:43:48;;;;;;;8.98;4.93;;;16.60;99.90;;;;;;5088528;28;20027;-73
2023/08/01 00:46:14;;;;;;;7.07;4.82;;;16.60;99.90;;;;;;5114062;28;20050;-73
2023/08/01 00:48:40;;;;;;;8.52;4.32;;;16.60;99.90;;;;;;5100260;28;20051;-73
2023/08/01 00:51:07;;;;;;;9.07;4.85;;;16.60;99.90;;;;;;5092902;28;20056;-73
2023/08/01 00:53:33;;;;;;;7.43;4.18;;;16.60;99.90;;;;;;5085714;28;20368;-73
2023/08/01 00:55:59;;;;;;;10.80;5.60;;;16.60;99.90;;;;;;5107906;28;20160;-73
2023/08/01 00:58:25;;;;;;;7.47;4.95;;;16.60;99.90;;;;;;5112503;28;20030;-73
2023/08/01 01:00:50;;;;;;;10.38;5.30;;;16.50;99.90;;;;;;5104112;28;20031;-73
2023/08/01 01:03:16;;;;;;;8.40;5.72;;;16.50;99.90;;;;;;5093770;28;20587;-73
2023/08/01 01:06:06;;;;;;;15.13;7.10;;;16.60;99.90;;;;;;5097313;28;20368;-73
2023/08/01 01:08:32;;;;;;;10.80;6.30;;;16.50;99.90;;;;;;5097061;28;20023;-73
2023/08/01 01:10:57;;;;;;;13.38;6.18;;;16.50;99.90;;;;;;5090087;28;20031;-73
2023/08/01 01:13:22;;;;;;;13.02;6.65;;;16.50;99.90;;;;;;5085344;28;20032;-73
2023/08/01 01:15:48;;;;;;;12.10;7.13;;;16.50;99.90;;;;;;5112323;28;20387;-72
2023/08/01 01:18:14;;;;;;;11.73;7.25;;;16.50;99.90;;;;;;5087670;28;20020;-73
2023/08/01 01:20:39;;;;;;;13.25;7.13;;;16.50;99.90;;;;;;5092869;28;20039;-73
2023/08/01 01:23:06;;;;;;;14.43;7.53;;;16.50;99.90;;;;;;5083496;28;20025;-72
2023/08/01 01:25:32;;;;;;;16.95;8.90;;;16.50;99.90;;;;;;5101856;28;20033;-73
2023/08/01 01:28:00;;;;;;;13.20;7.50;;;16.50;99.90;;;;;;5093521;28;20032;-73
2023/08/01 01:30:27;;;;;;;13.48;7.88;;;16.50;99.90;;;;;;5078929;28;20373;-73
2023/08/01 01:32:52;;;;;;;13.32;8.50;;;16.60;99.90;;;;;;5087980;28;20025;-73
2023/08/01 01:35:18;;;;;;;15.23;9.43;;;16.50;99.90;;;;;;5100038;28;20046;-73
2023/08/01 01:37:44;;;;;;;14.93;8.98;;;16.50;99.90;;;;;;5081188;28;20021;-73
2023/08/01 01:40:09;;;;;;;16.27;9.27;;;16.50;99.90;;;;;;5085177;28;20050;-73
2023/08/01 01:42:35;;;;;;;17.35;9.88;;;16.50;99.90;;;;;;5080135;28;20060;-73
2023/08/01 01:45:00;;;;;;;18.85;10.55;;;16.50;99.90;;;;;;5099106;28;20474;-73
2023/08/01 01:47:26;;;;;;;14.48;9.85;;;16.40;99.90;;;;;;5107826;28;20024;-73
2023/08/01 01:49:52;;;;;;;13.70;10.35;;;16.30;99.90;;;;;;5086753;28;20098;-73
2023/08/01 01:52:17;;;;;;;17.63;10.98;;;16.20;99.90;;;;;;5097029;28;20016;-73
2023/08/01 01:54:43;;;;;;;13.57;9.32;;;16.20;99.90;;;;;;5112592;28;20463;-73
2023/08/01 01:57:08;;;;;;;15.88;9.90;;;16.10;99.90;;;;;;5108722;28;20024;-73
2023/08/01 01:59:34;;;;;;;19.17;10.52;;;16.10;99.90;;;;;;5102385;28;20050;-73
2023/08/01 02:01:59;;;;;;;15.18;8.60;;;16.10;99.90;;;;;;5099956;28;20083;-73
2023/08/01 02:04:25;;;;;;;15.80;10.18;;;16.00;99.90;;;;;;5096075;28;20088;-73
2023/08/01 02:06:53;;;;;;;16.17;9.77;;;16.00;99.90;;;;;;5099176;28;20031;-73
2023/08/01 02:09:18;;;;;;;17.23;8.98;;;15.90;99.90;;;;;;5105096;28;20032;-73
2023/08/01 02:11:44;;;;;;;18.48;9.45;;;15.90;99.90;;;;;;5092629;28;20017;-73
2023/08/01 02:14:09;;;;;;;16.08;9.48;;;15.90;99.90;;;;;;5077634;28;20024;-73
2023/08/01 02:16:35;;;;;;;17.73;8.98;;;15.90;99.90;;;;;;5075375;28;20021;-73
2023/08/01 02:19:00;;;;;;;15.82;8.20;;;15.90;99.90;;;;;;5083359;28;20473;-73
2023/08/01 02:21:26;;;;;;;14.52;7.90;;;15.90;99.90;;;;;;5108835;28;20036;-73
2023/08/01 02:23:51;;;;;;;15.05;7.78;;;15.90;99.90;;;;;;5094713;28;20034;-73
2023/08/01 02:26:17;;;;;;;17.83;7.07;;;15.90;99.90;;;;;;5108415;28;20036;-73
2023/08/01 02:28:42;;;;;;;17.42;6.70;;;15.90;99.90;;;;;;5107669;28;20016;-73
2023/08/01 02:31:08;;;;;;;13.95;6.47;;;15.90;99.90;;;;;;5088965;28;20430;-73
2023/08/01 02:33:34;;;;;;;17.95;6.40;;;15.90;99.90;;;;;;5086021;28;20016;-73
2023/08/01 02:35:59;;;;;;;15.32;5.93;;;15.80;99.90;;;;;;5086933;28;20028;-75
2023/08/01 02:38:25;;;;;;;14.30;6.65;;;15.70;99.90;;;;;;5102268;28;20032;-74
2023/08/01 02:40:50;;;;;;;13.00;5.95;;;15.70;99.90;;;;;;5079822;28;20032;-75
2023/08/01 02:43:17;;;;;;;17.98;6.78;;;15.70;99.90;;;;;;5078165;28;20025;-74
2023/08/01 02:45:42;;;;;;;18.85;7.07;;;15.70;99.90;;;;;;5094148;28;20119;-74
2023/08/01 02:48:08;;;;;;;17.45;6.28;;;15.70;99.90;;;;;;5090400;28;20454;-74
2023/08/01 02:50:33;;;;;;;19.15;6.50;;;15.70;99.90;;;;;;5089706;28;20365;-74
2023/08/01 02:52:59;;;;;;;15.68;6.20;;;15.80;99.90;;;;;;5076391;28;20508;-74
2023/08/01 02:55:24;;;;;;;20.13;6.50;;;15.70;99.90;;;;;;5099125;28;20020;-74
2023/08/01 02:57:50;;;;;;;14.05;5.25;;;15.70;99.90;;;;;;5087301;28;20508;-74
2023/08/01 03:00:17;;;;;;;15.18;5.80;;;15.80;99.90;;;;;;5106523;28;20036;-74
2023/08/01 03:02:43;;;;;;;17.17;6.50;;;15.80;99.90;;;;;;5071158;28;20053;-73
2023/08/01 03:05:09;;;;;;;14.73;5.68;;;15.80;99.90;;;;;;5079449;28;20169;-74
2023/08/01 03:07:35;;;;;;;15.35;5.80;;;15.80;99.90;;;;;;5093836;28;20028;-74
2023/08/01 03:10:00;;;;;;;14.85;5.75;;;15.80;99.90;;;;;;5097122;28;20039;-74
2023/08/01 03:12:26;;;;;;;16.48;5.85;;;15.90;99.90;;;;;;5101277;28;20040;-74
2023/08/01 03:14:52;;;;;;;12.80;5.50;;;15.80;99.90;;;;;;5078294;28;20384;-74
2023/08/01 03:17:17;;;;;;;15.30;5.78;;;15.80;99.90;;;;;;5083636;28;20050;-73
2023/08/01 03:19:43;;;;;;;16.13;5.90;;;15.80;99.90;;;;;;5098228;28;20024;-74
2023/08/01 03:22:10;;;;;;;15.30;5.82;;;15.70;99.90;;;;;;5083024;28;20039;-74
2023/08/01 03:24:35;;;;;;;17.88;6.10;;;15.70;99.90;;;;;;5095187;28;20032;-74
2023/08/01 03:27:01;;;;;;;13.68;5.47;;;15.70;99.90;;;;;;5092234;28;20032;-74
2023/08/01 03:29:26;;;;;;;17.33;5.95;;;15.70;99.90;;;;;;5076735;28;20028;-74
2023/08/01 03:31:52;;;;;;;14.02;5.53;;;15.70;99.90;;;;;;5094502;28;20016;-74
2023/08/01 03:34:18;;;;;;;17.85;6.05;;;15.70;99.90;;;;;;5078716;28;20043;-74
2023/08/01 03:36:43;;;;;;;16.27;5.97;;;15.70;99.90;;;;;;5083065;28;20099;-74
2023/08/01 03:39:10;;;;;;;14.90;5.05;;;15.70;99.90;;;;;;5068968;28;20073;-74
2023/08/01 03:41:36;;;;;;;18.05;6.93;;;15.70;99.90;;;;;;5085304;28;20065;-73
2023/08/01 03:44:02;;;;;;;20.02;6.30;;;15.70;99.90;;;;;;5093332;28;20051;-74
2023/08/01 03:46:28;;;;;;;16.67;7.30;;;15.70;99.90;;;;;;5080948;28;20078;-74
2023/08/01 03:48:53;;;;;;;14.05;6.20;;;15.70;99.90;;;;;;5070560;28;20021;-74
2023/08/01 03:51:19;;;;;;;17.00;6.32;;;15.70;99.90;;;;;;5086833;28;20157;-74
2023/08/01 03:53:45;;;;;;;15.15;6.68;;;15.80;99.90;;;;;;5093259;28;20076;-74
2023/08/01 03:56:11;;;;;;;16.15;6.40;;;15.80;99.90;;;;;;5091032;28;20520;-74
2023/08/01 03:58:37;;;;;;;12.75;5.82;;;15.80;99.90;;;;;;5081394;28;20028;-73
2023/08/01 04:01:02;;;;;;;21.13;6.47;;;15.80;99.90;;;;;;5073013;28;20054;-74
2023/08/01 04:03:28;;;;;;;18.45;6.43;;;15.80;99.90;;;;;;5085673;28;20052;-74
2023/08/01 04:05:54;;;;;;;15.05;6.85;;;15.90;99.90;;;;;;5094260;28;20024;-74
2023/08/01 04:08:19;;;;;;;20.10;6.28;;;15.80;99.90;;;;;;5073903;28;20220;-74
2023/08/01 04:10:45;;;;;;;24.17;6.63;;;15.90;99.90;;;;;;5073803;28;20032;-74
2023/08/01 04:13:11;;;;;;;19.02;7.07;;;15.80;99.90;;;;;;5083133;28;20726;-74
2023/08/01 04:15:36;;;;;;;16.98;6.43;;;15.80;99.90;;;;;;5095056;28;20055;-74
2023/08/01 04:18:02;;;;;;;17.10;6.72;;;15.80;99.90;;;;;;5101086;28;20040;-74
2023/08/01 04:20:27;;;;;;;17.08;6.53;;;15.80;99.90;;;;;;5093482;28;20040;-74
2023/08/01 04:22:53;;;;;;;14.70;6.57;;;15.80;99.90;;;;;;5103398;28;20023;-74
2023/08/01 04:25:18;;;;;;;21.60;6.53;;;15.70;99.90;;;;;;5083626;28;20563;-74
2023/08/01 04:27:44;;;;;;;17.55;6.82;;;15.70;99.90;;;;;;5085354;28;20384;-74
2023/08/01 04:30:10;;;;;;;17.85;6.35;;;15.70;99.90;;;;;;5101314;28;20074;-74
2023/08/01 04:32:35;;;;;;;12.65;6.55;;;15.80;99.90;;;;;;5090640;28;20103;-74
2023/08/01 04:35:01;;;;;;;15.35;6.63;;;15.70;99.90;;;;;;5086372;28;20559;-74
2023/08/01 04:37:26;;;;;;;18.90;6.43;;;15.80;99.90;;;;;;5086557;28;20021;-74
2023/08/01 04:39:52;;;;;;;22.45;6.97;;;15.80;99.90;;;;;;5109694;28;20096;-74
2023/08/01 04:42:17;;;;;;;19.95;7.45;;;15.80;99.90;;;;;;5113525;28;20023;-74
2023/08/01 04:44:43;;;;;;;20.98;8.10;;;15.80;99.90;;;;;;5109042;28;20024;-74
2023/08/01 04:47:08;;;;;;;17.35;7.65;;;15.80;99.90;;;;;;5091282;28;20029;-74
2023/08/01 04:49:34;;;;;;;19.98;9.05;;;15.80;99.90;;;;;;5079437;28;20029;-73
2023/08/01 04:52:00;;;;;;;19.85;8.00;;;15.90;99.90;;;;;;5099458;28;20032;-73
2023/08/01 04:54:25;;;;;;;18.60;8.68;;;15.90;99.90;;;;;;5101301;28;20072;-74
2023/08/01 04:56:51;;;;;;;20.67;10.20;;;15.90;99.90;;;;;;5098184;28;20500;-73
2023/08/01 04:59:17;;;;;;;21.27;9.20;;;15.90;99.90;;;;;;5081338;28;20078;-73
2023/08/01 05:01:42;;;;;;;27.85;9.80;;;16.00;99.90;;;;;;5083579;28;20063;-74
2023/08/01 05:04:08;;;;;;;18.58;10.35;;;16.00;99.90;;;;;;5079169;28;20119;-73
2023/08/01 05:06:33;;;;;;;19.27;9.80;;;16.00;99.90;;;;;;5085092;28;20158;-73
2023/08/01 05:09:00;;;;;;;25.90;9.77;;;16.00;99.90;;;;;;5075748;28;20111;-73
2023/08/01 05:11:25;;;;;;;18.50;9.20;;;16.10;99.90;;;;;;5073793;28;20051;-73
2023/08/01 05:13:51;;;;;;;21.13;9.85;;;16.10;99.90;;;;;;5106156;28;20508;-73
2023/08/01 05:16:16;;;;;;;18.98;9.63;;;16.10;99.90;;;;;;5093364;28;20032;-73
2023/08/01 05:18:42;;;;;;;22.75;9.68;;;16.10;99.90;;;;;;5088736;28;20487;-73
2023/08/01 05:21:07;;;;;;;23.00;10.63;;;16.10;99.90;;;;;;5099894;28;20112;-72
2023/08/01 05:23:33;;;;;;;23.42;10.13;;;16.00;99.90;;;;;;5087132;28;20021;-73
2023/08/01 05:25:58;;;;;;;20.48;10.18;;;16.00;99.90;;;;;;5085191;28;20040;-73
2023/08/01 05:28:24;;;;;;;23.05;10.13;;;16.00;99.90;;;;;;5103060;28;20050;-72
2023/08/01 05:30:49;;;;;;;27.17;9.40;;;16.10;99.90;;;;;;5079749;28;20032;-73
2023/08/01 05:33:15;;;;;;;21.75;9.88;;;16.10;99.90;;;;;;5072732;28;20027;-73
2023/08/01 05:35:40;;;;;;;20.88;9.77;;;16.10;99.90;;;;;;5078589;28;20388;-73
2023/08/01 05:38:06;;;;;;;18.30;9.05;;;16.10;99.90;;;;;;5080027;28;20439;-73
2023/08/01 05:40:31;;;;;;;17.25;7.90;;;16.20;99.90;;;;;;5079157;28;20341;-73
2023/08/01 05:42:57;;;;;;;20.08;8.40;;;16.40;99.90;;;;;;5088005;28;20028;-72
2023/08/01 05:45:22;;;;;;;15.90;9.00;;;16.50;99.90;;;;;;5104411;28;20038;-74
2023/08/01 05:47:48;;;;;;;19.95;8.18;;;16.50;99.90;;;;;;5087229;28;20021;-73
2023/08/01 05:50:13;;;;;;;17.05;7.95;;;16.60;99.90;;;;;;5092075;28;20106;-73
2023/08/01 05:52:40;;;;;;;19.65;8.32;;;16.70;99.90;;;;;;5078822;28;20079;-75
2023/08/01 05:55:06;;;;;;;21.88;7.93;;;16.80;99.90;;;;;;5077988;28;20036;-73
2023/08/01 05:57:31;;;;;;;23.13;7.55;;;16.90;99.90;;;;;;5091765;28;20051;-74
2023/08/01 05:59:57;;;;;;;17.08;8.38;;;17.00;99.90;;;;;;5067315;28;20070;-74
2023/08/01 06:02:23;;;;;;;15.23;7.70;;;17.00;99.90;;;;;;5081719;28;20488;-74
2023/08/01 06:04:49;;;;;;;19.95;8.88;;;17.10;99.90;;;;;;5083337;28;20051;-74
2023/08/01 06:07:15;;;;;;;16.02;7.13;;;17.10;99.90;;;;;;5084069;28;20028;-74
2023/08/01 06:09:40;;;;;;;21.30;7.88;;;17.10;99.90;;;;;;5074692;28;20398;-75
2023/08/01 06:12:06;;;;;;;17.02;6.38;;;17.00;99.90;;;;;;5074522;28;20021;-75
2023/08/01 06:14:32;;;;;;;18.23;6.88;;;17.00;99.90;;;;;;5066205;28;20483;-72
2023/08/01 06:16:57;;;;;;;18.17;6.32;;;17.00;99.90;;;;;;5075456;28;20024;-74
2023/08/01 06:19:23;;;;;;;11.82;6.03;;;17.00;99.90;;;;;;5095879;28;20024;-74
2023/08/01 06:21:49;;;;;;;13.82;5.30;;;17.00;99.90;;;;;;5088497;28;20032;-74
2023/08/01 06:24:14;;;;;;;16.67;5.55;;;17.00;99.90;;;;;;5091399;28;20032;-74
2023/08/01 06:26:40;;;;;;;14.88;4.82;;;17.00;99.90;;;;;;5078111;28;20599;-74
2023/08/01 06:29:05;;;;;;;12.20;4.95;;;17.00;99.90;;;;;;5095633;28;20024;-74
2023/08/01 06:31:31;;;;;;;15.95;5.15;;;17.00;99.90;;;;;;5097654;28;20020;-73
2023/08/01 06:33:56;;;;;;;12.45;4.78;;;17.10;99.90;;;;;;5091292;28;20375;-73
2023/08/01 06:36:22;;;;;;;11.18;4.65;;;17.10;99.90;;;;;;5090950;28;20488;-73
2023/08/01 06:38:47;;;;;;;17.33;4.95;;;17.10;99.90;;;;;;5070161;28;20021;-73
2023/08/01 06:41:13;;;;;;;11.32;4.78;;;17.10;99.90;;;;;;5092602;28;20067;-73
2023/08/01 06:43:38;;;;;;;12.60;4.78;;;17.10;99.90;;;;;;5087111;28;20425;-73
2023/08/01 06:46:05;;;;;;;12.05;4.72;;;17.10;99.90;;;;;;5082709;28;20537;-73
2023/08/01 06:48:31;;;;;;;12.13;4.60;;;17.20;99.90;;;;;;5073343;28;20028;-73
2023/08/01 06:50:57;;;;;;;11.20;3.97;;;17.30;99.90;;;;;;5096906;28;20019;-73
2023/08/01 06:53:22;;;;;;;10.80;3.70;;;17.40;99.90;;;;;;5090309;28;20050;-73
2023/08/01 06:55:48;;;;;;;19.10;4.65;;;17.50;99.90;;;;;;5077767;28;20107;-74
2023/08/01 06:58:13;;;;;;;12.15;4.13;;;17.50;99.90;;;;;;5064378;28;20490;-73
2023/08/01 07:00:39;;;;;;;14.25;4.25;;;17.70;99.90;;;;;;5087501;28;20052;-73
2023/08/01 07:03:04;;;;;;;10.43;3.92;;;17.90;99.90;;;;;;5085550;28;20114;-73
2023/08/01 07:05:30;;;;;;;12.82;4.35;;;18.10;99.90;;;;;;5111039;28;20024;-73
2023/08/01 07:07:56;;;;;;;8.00;3.35;;;18.10;99.90;;;;;;5080508;28;20464;-73
2023/08/01 07:10:22;;;;;;;8.52;3.50;;;18.00;99.90;;;;;;5106673;28;20023;-73
2023/08/01 07:12:48;;;;;;;11.82;3.55;;;18.00;99.90;;;;;;5081733;28;20043;-73
2023/08/01 07:15:14;;;;;;;12.18;3.40;;;18.00;99.90;;;;;;5082179;28;20099;-73
2023/08/01 07:17:39;;;;;;;13.02;3.40;;;18.00;99.90;;;;;;5086065;28;20467;-73
2023/08/01 07:20:05;;;;;;;14.45;4.00;;;18.00;99.90;;;;;;5081526;28;20084;-73
2023/08/01 07:22:31;;;;;;;14.15;3.78;;;18.00;99.90;;;;;;5078720;28;20043;-73
2023/08/01 07:24:56;;;;;;;14.10;3.40;;;18.00;99.90;;;;;;5103784;28;20380;-73
2023/08/01 07:27:22;;;;;;;8.65;3.00;;;17.90;99.90;;;;;;5082719;28;20027;-75
2023/08/01 07:29:48;;;;;;;10.68;3.70;;;17.90;99.90;;;;;;5060016;28;20043;-74
2023/08/01 07:32:14;;;;;;;11.20;3.08;;;18.00;99.90;;;;;;5084113;28;20019;-73
2023/08/01 07:34:40;;;;;;;9.10;3.10;;;18.10;99.90;;;;;;5082636;28;20032;-73
2023/08/01 07:37:05;;;;;;;11.15;2.78;;;18.20;99.90;;;;;;5080629;28;20046;-74
2023/08/01 07:39:31;;;;;;;12.68;2.70;;;18.30;99.90;;;;;;5073907;28;20340;-74
2023/08/01 07:41:57;;;;;;;8.52;3.60;;;18.40;99.90;;;;;;5084619;28;20028;-73
2023/08/01 07:44:23;;;;;;;13.10;3.35;;;18.30;99.90;;;;;;5096254;28;20027;-75
2023/08/01 07:46:48;;;;;;;13.15;3.85;;;18.20;99.90;;;;;;5093812;28;20386;-75
2023/08/01 07:49:14;;;;;;;10.38;2.72;;;18.00;99.90;;;;;;5102327;28;20642;-74
2023/08/01 07:51:42;;;;;;;10.60;3.35;;;17.90;99.90;;;;;;5090763;28;20111;-75
2023/08/01 07:54:07;;;;;;;10.60;3.38;;;17.60;99.90;;;;;;5101791;28;20525;-75
2023/08/01 07:56:33;;;;;;;6.25;2.05;;;17.50;99.90;;;;;;5059266;28;20028;-74
2023/08/01 07:58:58;;;;;;;7.53;2.28;;;17.50;99.90;;;;;;5073427;28;20032;-74
2023/08/01 08:01:24;;;;;;;8.82;2.15;;;17.60;99.90;;;;;;5084387;28;20044;-74
2023/08/01 08:03:50;;;;;;;9.05;1.98;;;17.70;99.90;;;;;;5104612;28;20067;-74
2023/08/01 08:06:15;;;;;;;10.70;1.83;;;17.90;99.90;;;;;;5098868;28;20071;-73
2023/08/01 08:08:41;;;;;;;10.40;1.85;;;18.10;99.90;;;;;;5095692;28;20050;-74
2023/08/01 08:11:06;;;;;;;6.47;1.42;;;18.30;99.90;;;;;;5086823;28;20027;-74
2023/08/01 08:13:32;;;;;;;7.47;1.77;;;18.40;99.90;;;;;;5096001;28;20066;-74
2023/08/01 08:15:58;;;;;;;5.28;1.52;;;18.40;99.90;;;;;;5108851;28;20245;-74
2023/08/01 08:18:24;;;;;;;10.40;1.85;;;18.30;99.90;;;;;;5072315;28;20119;-74
2023/08/01 08:20:49;;;;;;;5.18;1.20;;;18.10;99.90;;;;;;5082179;28;20109;-74
2023/08/01 08:23:15;;;;;;;8.85;1.75;;;17.90;99.90;;;;;;5097688;28;20127;-74
2023/08/01 08:25:42;;;;;;;5.70;1.50;;;17.70;99.90;;;;;;5064460;28;20028;-75
2023/08/01 08:28:08;;;;;;;5.97;1.95;;;17.70;99.90;;;;;;5091439;28;20094;-74
2023/08/01 08:30:34;;;;;;;7.50;1.48;;;17.60;99.90;;;;;;5095723;28;20424;-73
2023/08/01 08:33:04;;;;;;;6.70;2.10;;;17.50;99.90;;;;;;5095887;28;20031;-74
2023/08/01 08:35:33;;;;;;;7.93;1.65;;;17.40;99.90;;;;;;5091963;28;20448;-73
2023/08/01 08:38:01;;;;;;;9.30;2.10;;;17.40;99.90;;;;;;5092338;28;20023;-75
2023/08/01 08:40:27;;;;;;;7.38;2.00;;;17.40;99.90;;;;;;5079600;28;20090;-73
2023/08/01 08:42:54;;;;;;;8.20;1.92;;;17.60;99.90;;;;;;5089898;28;20378;-74
2023/08/01 08:45:20;;;;;;;9.13;1.70;;;17.90;99.90;;;;;;5101311;28;20085;-73
2023/08/01 08:47:53;;;;;;;8.25;1.67;;;18.10;99.90;;;;;;5091698;28;20032;-74
2023/08/01 08:50:19;;;;;;;8.52;2.05;;;18.20;99.90;;;;;;5081240;28;20436;-74
2023/08/01 08:52:46;;;;;;;7.00;1.70;;;18.40;99.90;;;;;;5106570;28;20024;-74
2023/08/01 08:55:11;;;;;;;7.97;1.90;;;18.40;99.90;;;;;;5098366;28;20028;-74
2023/08/01 08:57:39;;;;;;;13.07;2.10;;;18.50;99.90;;;;;;5073952;28;20448;-74
2023/08/01 09:00:06;;;;;;;9.13;1.65;;;18.50;99.90;;;;;;5077624;28;20369;-73
2023/08/01 09:02:33;;;;;;;7.78;1.75;;;18.50;99.90;;;;;;5079533;28;20113;-74
2023/08/01 09:04:59;;;;;;;8.15;1.63;;;18.50;99.90;;;;;;5093977;28;20058;-73
2023/08/01 09:07:30;;;;;;;10.82;1.95;;;18.40;99.90;;;;;;5072918;28;20029;-73
2023/08/01 09:09:55;;;;;;;6.90;1.33;;;18.40;99.90;;;;;;5091251;28;20102;-73
2023/08/01 09:12:21;;;;;;;7.18;1.92;;;18.40;99.90;;;;;;5101166;28;20099;-73
2023/08/01 09:14:50;;;;;;;7.30;1.80;;;18.40;99.90;;;;;;5071683;28;20136;-73
2023/08/01 09:17:18;;;;;;;7.32;1.40;;;18.50;99.90;;;;;;5090404;28;20108;-73
2023/08/01 09:19:44;;;;;;;9.27;1.30;;;18.80;99.90;;;;;;5073541;28;20111;-73
2023/08/01 09:22:14;;;;;;;7.35;1.00;;;19.00;99.90;;;;;;5096811;28;20110;-73
2023/08/01 09:24:49;;;;;;;4.03;0.90;;;19.20;99.90;;;;;;5092211;28;20020;-73
2023/08/01 09:27:15;;;;;;;5.90;0.98;;;19.20;99.90;;;;;;5089662;28;20028;-73
2023/08/01 09:29:40;;;;;;;7.45;1.10;;;19.30;99.90;;;;;;5083225;28;20100;-73
2023/08/01 09:32:13;;;;;;;6.63;1.17;;;19.50;99.90;;;;;;5091802;28;20103;-73
2023/08/01 09:34:40;;;;;;;3.97;0.68;;;19.60;99.90;;;;;;5096574;28;20030;-73
2023/08/01 09:37:06;;;;;;;5.60;0.70;;;19.70;99.90;;;;;;5083339;28;20024;-73
2023/08/01 09:39:31;;;;;;;4.68;1.23;;;19.80;99.90;;;;;;5073515;28;20039;-73
2023/08/01 09:41:58;;;;;;;4.57;0.65;;;19.90;99.90;;;;;;5101036;28;20126;-73
2023/08/01 09:44:26;;;;;;;3.53;0.73;;;20.00;99.90;;;;;;5090771;28;20054;-73
2023/08/01 09:46:59;;;;;;;3.40;1.38;;;20.00;99.90;;;;;;5071935;28;20434;-74
2023/08/01 09:49:24;;;;;;;11.75;0.90;;;19.90;99.90;;;;;;5084447;28;20525;-74
2023/08/01 09:51:51;;;;;;;7.55;1.27;;;19.90;99.90;;;;;;5092255;28;20028;-73
2023/08/01 09:54:17;;;;;;;5.40;0.90;;;19.90;99.90;;;;;;5057690;28;20048;-73
2023/08/01 09:56:49;;;;;;;6.78;0.93;;;19.90;99.90;;;;;;5066780;28;20399;-73
2023/08/01 09:59:24;;;;;;;5.85;1.02;;;20.00;99.90;;;;;;5074153;23;20134;-73
2023/08/01 10:01:51;;;;;;;9.40;1.27;;;20.20;99.90;;;;;;5037018;28;20041;-74
2023/08/01 10:04:33;;;;;;;7.60;0.93;;;20.20;99.90;;;;;;5039619;28;20447;-73
2023/08/01 10:07:01;;;;;;;;;;;20.20;99.90;;;;;;5037900;28;20032;-74
2023/08/01 10:09:29;;;;;;;7.60;1.33;;;20.10;99.90;;;;;;5050187;28;19909;-74
2023/08/01 10:11:57;;;;;;;5.90;1.10;;;20.00;99.90;;;;;;5043337;28;20392;-76
2023/08/01 10:14:23;;;;;;;7.60;1.58;;;20.00;99.90;;;;;;5043083;28;20082;-73
2023/08/01 10:16:51;;;;;;;6.63;1.42;;;20.20;99.90;;;;;;5032434;28;20473;-73
2023/08/01 10:19:17;;;;;;;13.02;1.17;;;20.40;99.90;;;;;;5040764;28;20025;-74
2023/08/01 10:21:44;;;;;;;5.15;0.90;;;20.60;99.90;;;;;;5040366;28;20041;-73
2023/08/01 10:24:11;;;;;;;5.10;1.13;;;20.70;99.90;;;;;;5039998;28;20021;-73
2023/08/01 10:26:36;;;;;;;5.68;1.05;;;20.70;99.90;;;;;;5048808;28;20027;-73
2023/08/01 10:29:02;;;;;;;5.68;1.20;;;20.70;99.90;;;;;;5050424;28;20029;-74
2023/08/01 10:31:28;;;;;;;3.58;0.80;;;20.70;99.90;;;;;;5051472;28;20058;-74
2023/08/01 10:34:06;;;;;;;7.32;1.10;;;20.50;99.90;;;;;;5051323;28;20046;-74
2023/08/01 10:36:32;;;;;;;4.22;0.80;;;20.40;99.90;;;;;;5051494;28;20028;-74
2023/08/01 10:39:00;;;;;;;4.47;1.05;;;20.20;99.90;;;;;;5051514;28;20021;-74
2023/08/01 10:41:27;;;;;;;4.93;0.90;;;20.10;99.90;;;;;;5050931;28;20039;-74
2023/08/01 10:44:13;;;;;;;8.30;1.75;;;20.20;99.90;;;;;;5051034;28;20074;-74
2023/08/01 10:46:51;;;;;;;5.78;0.88;;;20.20;99.90;;;;;;5051206;28;20029;-74
2023/08/01 10:49:18;;;;;;;6.40;0.90;;;20.00;99.90;;;;;;5051186;28;20060;-74
2023/08/01 10:51:45;;;;;;;8.50;1.30;;;19.90;99.90;;;;;;5050004;28;20028;-74
2023/08/01 10:54:23;;;;;;;5.50;1.50;;;19.80;99.90;;;;;;5050836;28;20100;-74
2023/08/01 10:56:51;;;;;;;8.05;1.75;;;19.80;99.90;;;;;;5037822;28;20031;-74
2023/08/01 10:59:17;;;;;;;8.63;0.93;;;20.10;99.90;;;;;;5050333;28;20124;-74
2023/08/01 11:01:44;;;;;;;11.13;1.27;;;20.50;99.90;;;;;;5047107;28;20061;-74
2023/08/01 11:04:15;;;;;;;6.18;1.05;;;20.70;99.90;;;;;;5049028;28;20103;-74
2023/08/01 11:06:48;;;;;;;6.60;0.80;;;20.90;99.90;;;;;;5051229;28;20033;-72
2023/08/01 11:09:17;;;;;;;4.55;0.80;;;20.90;99.90;;;;;;5032689;28;20039;-72
2023/08/01 11:11:43;;;;;;;8.95;1.08;;;20.80;99.90;;;;;;5032932;28;20104;-72
2023/08/01 11:14:11;;;;;;;6.32;0.90;;;20.50;99.90;;;;;;5041273;28;20453;-72
2023/08/01 11:16:37;;;;;;;6.20;0.95;;;20.10;99.90;;;;;;5050479;28;20033;-73
2023/08/01 11:19:03;;;;;;;5.40;0.70;;;19.80;99.90;;;;;;5043133;28;20541;-73
2023/08/01 11:21:28;;;;;;;6.07;1.30;;;19.70;99.90;;;;;;5036336;28;20032;-73
2023/08/01 11:23:54;;;;;;;8.23;1.35;;;19.80;99.90;;;;;;5050232;28;20017;-72
2023/08/01 11:26:20;;;;;;;8.35;0.90;;;19.90;99.90;;;;;;5050873;28;20068;-73
2023/08/01 11:28:46;;;;;;;8.70;1.48;;;19.90;99.90;;;;;;5049508;28;20061;-73
2023/08/01 11:31:12;;;;;;;6.10;1.40;;;19.80;99.90;;;;;;5047156;28;20474;-72
2023/08/01 11:33:38;;;;;;;9.48;1.65;;;19.90;99.90;;;;;;5035881;28;20064;-73
2023/08/01 11:36:05;;;;;;;7.18;1.00;;;20.10;99.90;;;;;;5035562;28;20106;-73
2023/08/01 11:38:34;;;;;;;5.13;1.23;;;20.30;99.90;;;;;;5040346;28;20021;-72
2023/08/01 11:41:01;;;;;;;4.15;0.82;;;20.50;99.90;;;;;;5047470;28;20047;-73
2023/08/01 11:43:26;;;;;;;5.63;0.90;;;20.50;99.90;;;;;;5046599;28;20079;-73
2023/08/01 11:45:55;;;;;;;6.13;0.98;;;20.60;99.90;;;;;;5048514;28;20187;-73
2023/08/01 11:48:22;;;;;;;8.02;0.90;;;20.60;99.90;;;;;;5049046;28;20032;-74
2023/08/01 11:50:48;;;;;;;4.85;0.60;;;20.80;99.90;;;;;;5051008;28;20021;-72
2023/08/01 11:53:23;;;;;;;6.35;0.80;;;20.90;99.90;;;;;;5056135;28;20480;-74
2023/08/01 11:55:52;;;;;;;6.88;0.80;;;21.10;99.90;;;;;;5064796;28;20035;-74
2023/08/01 11:58:31;;;;;;;6.22;0.80;;;21.00;99.90;;;;;;5055468;28;20472;-73
2023/08/01 12:01:07;;;;;;;5.30;0.70;;;21.00;99.90;;;;;;5037611;28;20109;-73
2023/08/01 12:03:42;;;;;;;5.80;0.70;;;21.00;99.90;;;;;;5058359;28;20028;-74
2023/08/01 12:06:08;;;;;;;8.98;1.30;;;21.30;99.90;;;;;;5050911;28;20158;-74
2023/08/01 12:08:34;;;;;;;5.07;0.80;;;21.40;99.90;;;;;;5055458;28;20467;-74
2023/08/01 12:11:00;;;;;;;6.50;0.93;;;21.60;99.90;;;;;;5056616;28;20369;-74
2023/08/01 12:13:26;;;;;;;4.65;0.90;;;21.80;99.90;;;;;;5052439;28;20036;-74
2023/08/01 12:15:54;;;;;;;7.32;0.70;;;21.90;99.90;;;;;;5045006;28;20090;-75
2023/08/01 12:18:24;;;;;;;6.20;0.93;;;22.10;99.90;;;;;;5069274;28;20484;-74
2023/08/01 12:20:49;;;;;;;4.43;0.60;;;22.20;99.90;;;;;;5046222;28;20041;-74
2023/08/01 12:23:15;;;;;;;4.03;0.75;;;22.30;99.90;;;;;;5053421;28;20074;-74
2023/08/01 12:25:41;;;;;;;5.47;0.60;;;22.40;99.90;;;;;;5064007;28;20429;-74
2023/08/01 12:28:06;;;;;;;6.90;0.77;;;22.40;99.90;;;;;;5069721;28;20025;-74
2023/08/01 12:30:32;;;;;;;5.47;0.60;;;22.20;99.90;;;;;;5069562;28;20033;-74
2023/08/01 12:32:57;;;;;;;5.07;0.70;;;22.00;99.90;;;;;;5068171;28;20037;-74
2023/08/01 12:35:23;;;;;;;4.78;0.68;;;21.90;99.90;;;;;;5066367;28;20024;-74